Strona główna
Zdjęcia satelitarne 15-dni prognozyKlimatMeteorologia morska Cyklony Błyskawica LotniskoFAQ Gazetka O
Pogoda : Europa Afryka Ameryka Północna Ameryka Południowa Azja Australia-Oceania Inny
Języki Kontakt

Albert, Francja

Albert-Picardie

Szerokość geograficzna: 49-58-21N, Długość geograficzna: 002-41-29E, wysokość: 111 m


METAR: LFAQ 240430Z AUTO 36007KT 9999 OVC025 08/07 Q1022
TAF: LFAQ 231400Z 2315/2324 14008KT 8000 NSC BECMG 2316/2318 OVC010 TEMPO 2318/2324 1500 RADZ OVC003

czas: 05:50 (04:50 UTC)

Aktualna obserwacja pogody

Raport powstał 20 minut temu, godzina 04:30 UTC
Wiatr 7 kt od północ
Temperatura 8°C
Wilgotność 93%
Ciśnienie 1022 hPa
Widzialność 10 km lub więcej
Zachmurzenie całkowite na wysokości 2500 ft

Jednostka miary

Prognoza

Raport powstał 14 godziny i 50 minut temu, godzina 14:00 UTC
Prognoza ważna od 23 godzina 15 UTC do 23 godzina 24 UTC
Wiatr 8 kt od południowy wschód
Widzialność: 8000 m
Stopniowe zmiany
od 23 godzina 16 UTC do 23 godzina 18 UTC
Zachmurzenie całkowite na wysokości 1000 ft
Przejściowo
od 23 godzina 18 UTC do 23 godzina 24 UTC
Widzialność: 1500 m
Zachmurzenie całkowite na wysokości 300 ft
deszcz mżawka
Informacje na tej stronie internetowej podlegają klauzuli o wyłączeniu odpowiedzialności
Pogoda : Europa Afryka Ameryka Północna Ameryka Południowa Azja Australia-Oceania Inny
Zdjęcia satelitarne 15-dni prognozyKlimatMeteorologia morska Cyklony Błyskawica LotniskoFAQ Języki Kontakt Gazetka O